Terminal Aerodrome Forecast
Issued by NWS Wilmington, OH

Current Version | Previous Version | Text Only | Print | Product List | Glossary Off
Versions: 1 2 3 4 5 6 7 8 9 10 11 12 13 14

903
FTUS41 KILN 221135
TAFCMH
TAF
KCMH 221135Z 2212/2312 21006KT P6SM OVC010
      TEMPO 2212/2215 5SM BR SCT008 BKN012
     FM221500 23008KT P6SM BKN025
     FM221600 24010KT P6SM VCTS BKN035CB
     FM230000 31006KT P6SM BKN070
     FM231000 35006KT 5SM BR OVC006=

USA.gov is the U.S. government's official web portal to all federal, state and local government web resources and services.